Time;durP1;ratioP1;P1;durP2;ratioP2;P2;SDS_P1;SDS_P2;PMS_P1;PMS_P2;Temp;Humidity;BMP_temperature;BMP_pressure;BME280_temperature;BME280_humidity;BME280_pressure;Samples;Min_cycle;Max_cycle;Signal;HPM_P1;HPM_P2
2023/10/11 00:04:41;;;;;;;64.35;17.40;;;;;;;-145.67;100.00;66521.78;5566107;22;20135;-90
2023/10/11 00:07:06;;;;;;;55.50;16.20;;;;;;;-145.67;100.00;66521.78;5033760;28;20036;-93
2023/10/11 00:09:35;;;;;;;55.10;16.75;;;;;;;-145.67;100.00;66521.78;5060395;28;20058;-89
2023/10/11 00:12:04;;;;;;;57.67;16.88;;;;;;;-145.67;100.00;66521.78;5035881;28;20042;-92
2023/10/11 00:14:31;;;;;;;54.65;16.00;;;;;;;-145.67;100.00;66521.78;5059576;28;20037;-90
2023/10/11 00:16:57;;;;;;;47.95;15.52;;;;;;;-145.67;100.00;66521.78;5060271;28;20017;-90
2023/10/11 00:19:28;;;;;;;53.25;15.48;;;;;;;-145.67;100.00;66521.78;5040563;28;20046;-92
2023/10/11 00:21:54;;;;;;;52.50;15.95;;;;;;;-145.67;100.00;66521.78;5058791;28;20203;-91
2023/10/11 00:24:23;;;;;;;52.58;15.68;;;;;;;-145.67;100.00;66521.78;5075257;28;20087;-90
2023/10/11 00:26:49;;;;;;;50.30;14.80;;;;;;;-145.67;100.00;66521.78;5058215;28;20025;-91
2023/10/11 00:29:16;;;;;;;49.75;15.85;;;;;;;-145.67;100.00;66521.78;5053496;28;20017;-91
2023/10/11 00:31:41;;;;;;;52.85;15.65;;;;;;;-145.67;100.00;66521.78;5036349;28;20205;-92
2023/10/11 00:34:10;;;;;;;54.35;14.93;;;;;;;-145.67;100.00;66521.78;5053149;28;20033;-91
2023/10/11 00:36:36;;;;;;;50.15;15.20;;;;;;;-145.67;100.00;66521.78;5051554;28;20025;-90
2023/10/11 00:39:03;;;;;;;48.47;14.35;;;;;;;-145.67;100.00;66521.78;5034225;28;20037;-92
2023/10/11 00:41:32;;;;;;;50.55;14.35;;;;;;;-145.67;100.00;66521.78;5025885;28;20495;-90
2023/10/11 00:43:57;;;;;;;48.08;13.55;;;;;;;-145.67;100.00;66521.78;5020048;28;20032;-92
2023/10/11 00:46:29;;;;;;;44.83;14.52;;;;;;;-145.67;100.00;66521.78;5036525;28;20358;-91
2023/10/11 00:49:02;;;;;;;50.15;14.73;;;;;;;-145.67;100.00;66521.78;5019981;28;20028;-90
2023/10/11 00:51:29;;;;;;;51.20;14.30;;;;;;;-145.67;100.00;66521.78;5020697;28;20080;-91
2023/10/11 00:53:56;;;;;;;56.97;14.15;;;;;;;-145.67;100.00;66521.78;5036766;28;20476;-90
2023/10/11 00:56:26;;;;;;;43.80;13.70;;;;;;;-145.67;100.00;66521.78;5017214;28;20027;-91
2023/10/11 00:58:52;;;;;;;51.95;14.60;;;;;;;-145.67;100.00;66521.78;5019957;28;20095;-91
2023/10/11 01:01:20;;;;;;;50.70;14.43;;;;;;;-145.67;100.00;66521.78;5048485;28;20017;-92
2023/10/11 01:03:45;;;;;;;53.40;14.27;;;;;;;-145.67;100.00;66521.78;5026841;28;20086;-92
2023/10/11 01:06:12;;;;;;;50.80;14.85;;;;;;;-145.67;100.00;66521.78;5023860;28;20031;-92
2023/10/11 01:08:40;;;;;;;51.08;14.80;;;;;;;-145.67;100.00;66521.78;5064187;28;20082;-91
2023/10/11 01:11:08;;;;;;;46.72;13.73;;;;;;;-145.67;100.00;66521.78;5057937;28;20033;-91
2023/10/11 01:13:34;;;;;;;52.70;14.90;;;;;;;-145.67;100.00;66521.78;5042986;28;20009;-91
2023/10/11 01:16:05;;;;;;;44.08;13.38;;;;;;;-145.67;100.00;66521.78;5065207;28;20042;-89
2023/10/11 01:18:33;;;;;;;46.90;14.32;;;;;;;-145.67;100.00;66521.78;5044252;28;20024;-90
2023/10/11 01:21:03;;;;;;;55.63;15.23;;;;;;;-145.67;100.00;66521.78;5034083;28;20025;-90
2023/10/11 01:23:29;;;;;;;50.95;15.25;;;;;;;-145.67;100.00;66521.78;5036798;28;20536;-91
2023/10/11 01:25:58;;;;;;;47.63;14.55;;;;;;;-145.67;100.00;66521.78;5032239;28;20104;-92
2023/10/11 01:28:23;;;;;;;42.70;13.02;;;;;;;-145.67;100.00;66521.78;5040101;28;20543;-90
2023/10/11 01:30:51;;;;;;;49.88;14.30;;;;;;;-145.67;100.00;66521.78;5043116;28;20107;-90
2023/10/11 01:33:18;;;;;;;41.33;13.20;;;;;;;-145.67;100.00;66521.78;5020113;28;20040;-90
2023/10/11 01:35:44;;;;;;;43.78;13.10;;;;;;;-145.67;100.00;66521.78;5054173;28;20020;-90
2023/10/11 01:38:10;;;;;;;47.80;15.02;;;;;;;-145.67;100.00;66521.78;5039006;28;20051;-91
2023/10/11 01:40:39;;;;;;;44.05;13.75;;;;;;;-145.67;100.00;66521.78;5036319;28;20545;-89
2023/10/11 01:43:05;;;;;;;43.10;13.30;;;;;;;-145.67;100.00;66521.78;5036256;28;20025;-90
2023/10/11 01:45:33;;;;;;;46.13;13.40;;;;;;;-145.67;100.00;66521.78;5037250;28;20108;-92
2023/10/11 01:47:58;;;;;;;43.25;13.35;;;;;;;-145.67;100.00;66521.78;5037712;28;20060;-92
2023/10/11 01:50:24;;;;;;;42.00;13.40;;;;;;;-145.67;100.00;66521.78;5020710;28;20418;-90
2023/10/11 01:52:50;;;;;;;44.97;13.82;;;;;;;-145.67;100.00;66521.78;5038886;28;20626;-89
2023/10/11 01:55:17;;;;;;;43.33;13.00;;;;;;;-145.67;100.00;66521.78;5041481;28;20029;-90
2023/10/11 01:57:45;;;;;;;48.20;14.73;;;;;;;-145.67;100.00;66521.78;5041406;28;20051;-90
2023/10/11 02:00:24;;;;;;;46.53;13.18;;;;;;;-145.67;100.00;66521.78;5045939;28;20024;-91
2023/10/11 02:02:55;;;;;;;50.47;13.43;;;;;;;-145.67;100.00;66521.78;5046039;28;20043;-91
2023/10/11 02:05:24;;;;;;;43.72;13.15;;;;;;;-145.67;100.00;66521.78;5079494;28;20017;-92
2023/10/11 02:07:51;;;;;;;48.15;14.38;;;;;;;-145.67;100.00;66521.78;5082129;28;20024;-89
2023/10/11 02:10:25;;;;;;;52.40;14.57;;;;;;;-145.67;100.00;66521.78;5077495;28;20108;-89
2023/10/11 02:12:52;;;;;;;44.78;14.13;;;;;;;-145.67;100.00;66521.78;5079388;28;20469;-90
2023/10/11 02:15:21;;;;;;;48.45;15.02;;;;;;;-145.67;100.00;66521.78;5060503;28;20020;-92
2023/10/11 02:17:57;;;;;;;41.45;13.35;;;;;;;-145.67;100.00;66521.78;5060170;28;20414;-91
2023/10/11 02:20:23;;;;;;;42.55;13.50;;;;;;;-145.67;100.00;66521.78;5043777;28;20541;-91
2023/10/11 02:22:50;;;;;;;50.17;14.45;;;;;;;-145.67;100.00;66521.78;5055197;28;20048;-90
2023/10/11 02:25:19;;;;;;;44.15;13.85;;;;;;;-145.67;100.00;66521.78;5050633;28;20024;-91
2023/10/11 02:27:49;;;;;;;49.95;14.13;;;;;;;-145.67;100.00;66521.78;5079520;28;20021;-91
2023/10/11 02:30:20;;;;;;;45.30;14.95;;;;;;;-145.67;100.00;66521.78;5065139;28;20036;-91
2023/10/11 02:32:46;;;;;;;;;;;;;;;-145.67;100.00;66521.78;5098884;28;20040;-90
2023/10/11 02:35:13;;;;;;;49.80;14.38;;;;;;;-145.67;100.00;66521.78;5065209;28;19934;-90
2023/10/11 02:37:45;;;;;;;45.60;14.13;;;;;;;-145.67;100.00;66521.78;5093607;28;20034;-91
2023/10/11 02:40:11;;;;;;;;;;;;;;;-145.67;100.00;66521.78;5066263;28;20016;-91
2023/10/11 02:42:36;;;;;;;42.97;13.50;;;;;;;-145.67;100.00;66521.78;5065829;28;19911;-89
2023/10/11 02:45:08;;;;;;;46.30;14.30;;;;;;;-145.67;100.00;66521.78;5083052;28;20040;-91
2023/10/11 02:47:35;;;;;;;36.80;13.25;;;;;;;-145.67;100.00;66521.78;5066706;28;20025;-90
2023/10/11 02:50:07;;;;;;;39.33;13.38;;;;;;;-145.67;100.00;66521.78;5063670;28;20048;-92
2023/10/11 02:52:35;;;;;;;45.97;14.55;;;;;;;-145.67;100.00;66521.78;5083337;28;20043;-90
2023/10/11 02:55:21;;;;;;;39.20;13.43;;;;;;;-145.67;100.00;66521.78;5066272;28;20059;-92
2023/10/11 02:57:48;;;;;;;47.15;13.38;;;;;;;-145.67;100.00;66521.78;5067736;28;20044;-90
2023/10/11 03:00:23;;;;;;;45.53;14.88;;;;;;;-145.67;100.00;66521.78;5066153;28;20080;-92
2023/10/11 03:02:54;;;;;;;39.95;13.13;;;;;;;-145.67;100.00;66521.78;5084300;28;20062;-90
2023/10/11 03:05:27;;;;;;;43.78;13.35;;;;;;;-145.67;100.00;66521.78;5066638;28;20095;-91
2023/10/11 03:08:13;;;;;;;43.90;13.77;;;;;;;-145.67;100.00;66521.78;5083291;28;20091;-91
2023/10/11 03:10:43;;;;;;;45.28;14.02;;;;;;;-145.67;100.00;66521.78;5068243;28;20012;-91
2023/10/11 03:13:20;;;;;;;36.88;12.77;;;;;;;-145.67;100.00;66521.78;5066288;28;20025;-88
2023/10/11 03:15:54;;;;;;;48.70;13.98;;;;;;;-145.67;100.00;66521.78;5065925;28;20025;-90
2023/10/11 03:18:25;;;;;;;38.13;13.15;;;;;;;-145.67;100.00;66521.78;5044724;28;20039;-89
2023/10/11 03:21:09;;;;;;;42.58;13.13;;;;;;;-145.67;100.00;66521.78;5059437;28;20048;-90
2023/10/11 03:23:45;;;;;;;40.40;12.60;;;;;;;-145.67;100.00;66521.78;5031949;28;20036;-91
2023/10/11 03:26:22;;;;;;;48.28;13.88;;;;;;;-145.67;100.00;66521.78;5042683;28;20036;-91
2023/10/11 03:28:58;;;;;;;39.35;13.60;;;;;;;-145.67;100.00;66521.78;5077987;28;20042;-91
2023/10/11 03:31:28;;;;;;;45.78;14.35;;;;;;;-145.67;100.00;66521.78;5076176;28;20043;-90
2023/10/11 03:33:59;;;;;;;51.40;13.65;;;;;;;-145.67;100.00;66521.78;5058048;28;20017;-92
2023/10/11 03:36:43;;;;;;;42.72;13.38;;;;;;;-145.67;100.00;66521.78;5077623;28;20016;-90
2023/10/11 03:39:09;;;;;;;40.75;13.40;;;;;;;-145.67;100.00;66521.78;5062200;28;20025;-90
2023/10/11 03:41:36;;;;;;;43.42;13.80;;;;;;;-145.67;100.00;66521.78;5057775;28;20052;-91
2023/10/11 03:44:11;;;;;;;42.47;13.98;;;;;;;-145.67;100.00;66521.78;5074503;28;20036;-91
2023/10/11 03:46:38;;;;;;;49.60;13.65;;;;;;;-145.67;100.00;66521.78;5065081;28;20036;-91
2023/10/11 03:51:50;;;;;;;46.80;13.35;;;;;;;-145.67;100.00;66521.78;5073570;28;20009;-90
2023/10/11 03:54:24;;;;;;;36.30;13.32;;;;;;;-145.67;100.00;66521.78;5069731;28;20032;-91
2023/10/11 03:56:53;;;;;;;40.80;13.20;;;;;;;-145.67;100.00;66521.78;5068913;28;20166;-91
2023/10/11 03:59:29;;;;;;;43.40;13.35;;;;;;;-145.67;100.00;66521.78;5041986;28;20025;-89
2023/10/11 04:02:03;;;;;;;45.80;13.68;;;;;;;-145.67;100.00;66521.78;5058436;28;20020;-90
2023/10/11 04:04:28;;;;;;;36.92;13.27;;;;;;;-145.67;100.00;66521.78;5056541;28;20086;-92
2023/10/11 04:07:01;;;;;;;45.30;13.55;;;;;;;-145.67;100.00;66521.78;5038439;28;20021;-90
2023/10/11 04:09:34;;;;;;;48.03;13.27;;;;;;;-145.67;100.00;66521.78;5037753;28;20087;-90
2023/10/11 04:12:00;;;;;;;45.72;13.82;;;;;;;-145.67;100.00;66521.78;5037358;28;20036;-90
2023/10/11 04:14:45;;;;;;;38.63;14.23;;;;;;;-145.67;100.00;66521.78;5057003;28;20032;-90
2023/10/11 04:19:51;;;;;;;42.88;14.73;;;;;;;-145.67;100.00;66521.78;5057814;28;20099;-90
2023/10/11 04:22:23;;;;;;;54.45;15.20;;;;;;;-145.67;100.00;66521.78;5057013;28;20048;-89
2023/10/11 04:24:48;;;;;;;;;;;;;;;-145.67;100.00;66521.78;5042243;28;20030;-90
2023/10/11 04:29:47;;;;;;;46.83;15.20;;;;;;;-145.67;100.00;66521.78;5076753;28;20024;-90
2023/10/11 04:32:14;;;;;;;43.78;14.50;;;;;;;-145.67;100.00;66521.78;5052011;28;20060;-92
2023/10/11 04:34:55;;;;;;;47.33;15.25;;;;;;;-145.67;100.00;66521.78;5077399;28;20021;-91
2023/10/11 04:37:43;;;;;;;48.60;15.75;;;;;;;-145.67;100.00;66521.78;5042766;28;20139;-91
2023/10/11 04:40:23;;;;;;;51.17;15.80;;;;;;;-145.67;100.00;66521.78;5058717;28;20037;-91
2023/10/11 04:43:04;;;;;;;51.40;16.25;;;;;;;-145.67;100.00;66521.78;5061012;28;20052;-92
2023/10/11 04:46:30;;;;;;;43.97;15.50;;;;;;;-145.67;100.00;66521.78;5056576;28;20040;-91
2023/10/11 04:53:00;;;;;;;46.90;15.52;;;;;;;-145.67;100.00;66521.78;5030338;28;20048;-90
2023/10/11 04:55:34;;;;;;;50.30;17.13;;;;;;;-145.67;100.00;66521.78;5074689;28;20028;-89
2023/10/11 04:58:07;;;;;;;47.58;16.42;;;;;;;-145.67;100.00;66521.78;5047474;28;20020;-90
2023/10/11 05:00:44;;;;;;;48.17;16.25;;;;;;;-145.67;100.00;66521.78;5083601;28;20028;-89
2023/10/11 05:03:10;;;;;;;50.70;16.58;;;;;;;-145.67;100.00;66521.78;5078820;28;20029;-90
2023/10/11 05:05:36;;;;;;;48.38;17.25;;;;;;;-145.67;100.00;66521.78;5039546;28;20036;-92
2023/10/11 05:08:14;;;;;;;52.38;17.33;;;;;;;-145.67;100.00;66521.78;5045169;28;20483;-91
2023/10/11 05:10:43;;;;;;;50.47;17.13;;;;;;;-145.67;100.00;66521.78;5080216;28;20619;-92
2023/10/11 05:13:13;;;;;;;53.30;19.10;;;;;;;-145.67;100.00;66521.78;5079956;28;20116;-91
2023/10/11 05:15:47;;;;;;;56.45;18.85;;;;;;;-145.67;100.00;66521.78;5057743;28;20112;-92
2023/10/11 05:18:18;;;;;;;55.97;16.95;;;;;;;-145.67;100.00;66521.78;5041721;28;20482;-91
2023/10/11 05:20:57;;;;;;;56.03;17.90;;;;;;;-145.67;100.00;66521.78;5040486;28;20418;-90
2023/10/11 05:23:32;;;;;;;49.13;17.83;;;;;;;-145.67;100.00;66521.78;5044111;28;20063;-90
2023/10/11 05:26:16;;;;;;;50.47;17.35;;;;;;;-145.67;100.00;66521.78;5042959;28;20028;-93
2023/10/11 05:28:59;;;;;;;47.78;16.80;;;;;;;-145.67;100.00;66521.78;5065929;28;20086;-90
2023/10/11 05:31:34;;;;;;;50.03;16.42;;;;;;;-145.67;100.00;66521.78;5060720;28;20025;-92
2023/10/11 05:34:45;;;;;;;53.47;17.92;;;;;;;-145.67;100.00;66521.78;5053308;28;20035;-90
2023/10/11 05:50:54;;;;;;;41.08;15.90;;;;;;;-145.67;100.00;66521.78;5067480;28;20051;-92
2023/10/11 05:53:28;;;;;;;51.38;18.10;;;;;;;-145.67;100.00;66521.78;5068591;28;20025;-91
2023/10/11 05:55:57;;;;;;;49.67;17.58;;;;;;;-145.67;100.00;66521.78;5062927;28;20056;-92
2023/10/11 05:58:25;;;;;;;44.00;16.63;;;;;;;-145.67;100.00;66521.78;5081791;28;20028;-93
2023/10/11 06:00:53;;;;;;;57.30;17.00;;;;;;;-145.67;100.00;66521.78;5082264;28;20012;-92
2023/10/11 06:03:24;;;;;;;50.83;16.67;;;;;;;-145.67;100.00;66521.78;5098462;28;20100;-90
2023/10/11 06:06:10;;;;;;;39.88;15.02;;;;;;;-145.67;100.00;66521.78;5050835;28;20024;-95
2023/10/11 06:08:38;;;;;;;48.55;15.80;;;;;;;-145.67;100.00;66521.78;5087826;28;20393;-92
2023/10/11 06:11:08;;;;;;;45.67;15.55;;;;;;;-145.67;100.00;66521.78;5066400;28;20374;-92
2023/10/11 06:17:05;;;;;;;41.20;15.20;;;;;;;-145.67;100.00;66521.78;5087456;28;20039;-91
2023/10/11 06:19:31;;;;;;;38.17;14.40;;;;;;;-145.67;100.00;66521.78;5069426;28;20035;-91
2023/10/11 06:21:58;;;;;;;41.75;14.73;;;;;;;-145.67;100.00;66521.78;5078858;28;20086;-91
2023/10/11 06:24:32;;;;;;;37.53;13.70;;;;;;;-145.67;100.00;66521.78;5069014;28;20025;-91
2023/10/11 06:29:53;;;;;;;36.55;13.00;;;;;;;-145.67;100.00;66521.78;5084046;28;20425;-91
2023/10/11 06:32:21;;;;;;;36.13;12.65;;;;;;;-145.67;100.00;66521.78;5066983;28;20126;-92
2023/10/11 06:34:48;;;;;;;42.95;13.45;;;;;;;-145.67;100.00;66521.78;5081159;28;20039;-91
2023/10/11 06:37:19;;;;;;;34.22;13.23;;;;;;;-145.67;100.00;66521.78;5081603;28;20047;-92
2023/10/11 06:42:31;;;;;;;40.45;12.13;;;;;;;-145.67;100.00;66521.78;5064492;28;20029;-91
2023/10/11 06:45:49;;;;;;;;;;;;;;;;;;;;;
2023/10/11 06:52:26;;;;;;;27.58;11.65;;;;;;;-145.67;100.00;66521.78;4932252;28;20067;-91
2023/10/11 06:57:39;;;;;;;38.30;11.93;;;;;;;-145.67;100.00;66521.78;5062887;28;19908;-92
2023/10/11 07:00:21;;;;;;;41.15;13.40;;;;;;;-145.67;100.00;66521.78;5079227;28;20070;-91
2023/10/11 07:02:47;;;;;;;;;;;;;;;-145.67;100.00;66521.78;5027411;28;20028;-91
2023/10/11 07:05:17;;;;;;;36.70;12.25;;;;;;;-145.67;100.00;66521.78;5076727;28;20433;-91
2023/10/11 07:07:53;;;;;;;33.30;11.63;;;;;;;-145.67;100.00;66521.78;5042466;28;20028;-91
2023/10/11 07:10:32;;;;;;;38.70;12.00;;;;;;;-145.67;100.00;66521.78;5058768;28;20466;-92
2023/10/11 07:13:12;;;;;;;29.95;11.40;;;;;;;-145.67;100.00;66521.78;5063724;28;20044;-92
2023/10/11 07:16:10;;;;;;;30.70;11.15;;;;;;;-145.67;100.00;66521.78;5060941;28;20090;-93
2023/10/11 07:18:43;;;;;;;36.65;12.38;;;;;;;-145.67;100.00;66521.78;5090061;28;20031;-93
2023/10/11 16:42:15;;;;;;;60.42;19.98;;;;;;;-145.67;100.00;66521.78;5868878;22;20506;-91
2023/10/11 16:44:43;;;;;;;59.35;19.23;;;;;;;-145.67;100.00;66521.78;5059109;28;20052;-91
2023/10/11 16:47:09;;;;;;;53.70;18.83;;;;;;;-145.67;100.00;66521.78;5043140;28;20064;-91
2023/10/11 16:49:35;;;;;;;57.20;20.02;;;;;;;-145.67;100.00;66521.78;5026666;28;20021;-91
2023/10/11 16:52:02;;;;;;;63.42;19.55;;;;;;;-145.67;100.00;66521.78;5025104;28;20060;-90
2023/10/11 16:54:27;;;;;;;67.80;20.40;;;;;;;-145.67;100.00;66521.78;5040996;28;20027;-92
2023/10/11 16:56:54;;;;;;;59.75;20.23;;;;;;;-145.67;100.00;66521.78;5038116;28;20100;-94
